sensor_id;sensor_type;location;lat;lon;timestamp;pressure;altitude;pressure_sealevel;temperature;humidity
72409;BME280;60402;48.082;11.628;2023-07-08T00:00:31;95584.09;;;17.05;73.94
72409;BME280;60402;48.082;11.628;2023-07-08T00:03:18;95575.69;;;17.01;74.24
72409;BME280;60402;48.082;11.628;2023-07-08T00:06:04;95572.94;;;17.07;74.19
72409;BME280;60402;48.082;11.628;2023-07-08T00:08:52;95575.19;;;17.03;74.59
72409;BME280;60402;48.082;11.628;2023-07-08T00:11:38;95572.84;;;17.01;74.48
72409;BME280;60402;48.082;11.628;2023-07-08T00:14:24;95576.19;;;17.00;75.12
72409;BME280;60402;48.082;11.628;2023-07-08T00:17:11;95570.22;;;16.89;75.65
72409;BME280;60402;48.082;11.628;2023-07-08T00:19:57;95565.00;;;16.87;76.43
72409;BME280;60402;48.082;11.628;2023-07-08T00:22:43;95568.38;;;16.76;77.82
72409;BME280;60402;48.082;11.628;2023-07-08T00:25:32;95557.16;;;16.64;78.24
72409;BME280;60402;48.082;11.628;2023-07-08T00:28:20;95561.41;;;16.68;78.29
72409;BME280;60402;48.082;11.628;2023-07-08T00:31:09;95554.31;;;16.64;77.85
72409;BME280;60402;48.082;11.628;2023-07-08T00:33:55;95573.59;;;16.78;77.08
72409;BME280;60402;48.082;11.628;2023-07-08T00:36:41;95551.16;;;16.61;77.67
72409;BME280;60402;48.082;11.628;2023-07-08T00:39:27;95564.00;;;16.57;78.21
72409;BME280;60402;48.082;11.628;2023-07-08T00:42:24;95566.38;;;16.58;78.07
72409;BME280;60402;48.082;11.628;2023-07-08T00:45:41;95557.00;;;16.67;77.56
72409;BME280;60402;48.082;11.628;2023-07-08T00:48:30;95561.59;;;16.65;77.09
72409;BME280;60402;48.082;11.628;2023-07-08T00:51:18;95552.72;;;16.63;76.63
72409;BME280;60402;48.082;11.628;2023-07-08T00:54:16;95569.09;;;16.53;76.97
72409;BME280;60402;48.082;11.628;2023-07-08T00:57:02;95563.72;;;16.46;76.87
72409;BME280;60402;48.082;11.628;2023-07-08T00:59:55;95555.78;;;16.50;76.14
72409;BME280;60402;48.082;11.628;2023-07-08T01:02:54;95552.13;;;16.58;75.45
72409;BME280;60402;48.082;11.628;2023-07-08T01:05:41;95564.69;;;16.52;75.43
72409;BME280;60402;48.082;11.628;2023-07-08T01:08:29;95557.84;;;16.49;75.18
72409;BME280;60402;48.082;11.628;2023-07-08T01:11:16;95542.72;;;16.34;75.65
72409;BME280;60402;48.082;11.628;2023-07-08T01:14:02;95558.81;;;16.46;75.30
72409;BME280;60402;48.082;11.628;2023-07-08T01:16:51;95546.66;;;16.36;76.31
72409;BME280;60402;48.082;11.628;2023-07-08T01:19:36;95548.44;;;16.25;76.03
72409;BME280;60402;48.082;11.628;2023-07-08T01:22:23;95560.00;;;16.30;76.19
72409;BME280;60402;48.082;11.628;2023-07-08T01:25:10;95569.75;;;16.48;75.69
72409;BME280;60402;48.082;11.628;2023-07-08T01:27:56;95571.28;;;16.58;74.83
72409;BME280;60402;48.082;11.628;2023-07-08T01:30:43;95552.13;;;16.58;74.81
72409;BME280;60402;48.082;11.628;2023-07-08T01:33:29;95569.22;;;16.58;74.95
72409;BME280;60402;48.082;11.628;2023-07-08T01:36:15;95558.44;;;16.63;74.92
72409;BME280;60402;48.082;11.628;2023-07-08T01:39:00;95533.97;;;16.47;74.38
72409;BME280;60402;48.082;11.628;2023-07-08T01:41:46;95569.03;;;16.71;74.03
72409;BME280;60402;48.082;11.628;2023-07-08T01:44:34;95566.81;;;16.66;74.29
72409;BME280;60402;48.082;11.628;2023-07-08T01:47:20;95566.34;;;16.68;74.16
72409;BME280;60402;48.082;11.628;2023-07-08T01:50:09;95568.94;;;16.56;74.48
72409;BME280;60402;48.082;11.628;2023-07-08T01:52:58;95563.69;;;16.55;74.59
72409;BME280;60402;48.082;11.628;2023-07-08T01:55:44;95562.91;;;16.54;75.02
72409;BME280;60402;48.082;11.628;2023-07-08T01:58:30;95564.06;;;16.48;75.90
72409;BME280;60402;48.082;11.628;2023-07-08T02:01:16;95560.44;;;16.38;76.28
72409;BME280;60402;48.082;11.628;2023-07-08T02:04:02;95555.50;;;16.48;76.10
72409;BME280;60402;48.082;11.628;2023-07-08T02:09:39;95564.47;;;16.55;76.14
72409;BME280;60402;48.082;11.628;2023-07-08T02:12:24;95553.03;;;16.65;75.56
72409;BME280;60402;48.082;11.628;2023-07-08T02:15:10;95545.28;;;16.56;75.85
72409;BME280;60402;48.082;11.628;2023-07-08T02:17:56;95547.59;;;16.43;77.79
72409;BME280;60402;48.082;11.628;2023-07-08T02:20:45;95548.25;;;16.38;78.05
72409;BME280;60402;48.082;11.628;2023-07-08T02:23:31;95553.78;;;16.32;78.62
72409;BME280;60402;48.082;11.628;2023-07-08T02:26:16;95542.38;;;16.32;77.93
72409;BME280;60402;48.082;11.628;2023-07-08T02:29:02;95543.00;;;16.36;78.29
72409;BME280;60402;48.082;11.628;2023-07-08T02:31:48;95542.34;;;16.41;77.94
72409;BME280;60402;48.082;11.628;2023-07-08T02:34:33;95537.63;;;16.38;78.16
72409;BME280;60402;48.082;11.628;2023-07-08T02:37:19;95531.47;;;16.30;79.04
72409;BME280;60402;48.082;11.628;2023-07-08T02:40:05;95541.94;;;16.33;79.06
72409;BME280;60402;48.082;11.628;2023-07-08T02:42:52;95532.00;;;16.20;79.62
72409;BME280;60402;48.082;11.628;2023-07-08T02:45:37;95543.06;;;16.18;79.84
72409;BME280;60402;48.082;11.628;2023-07-08T02:48:23;95531.66;;;16.18;79.70
72409;BME280;60402;48.082;11.628;2023-07-08T02:51:09;95532.72;;;16.39;78.91
72409;BME280;60402;48.082;11.628;2023-07-08T02:53:55;95535.91;;;16.31;79.54
72409;BME280;60402;48.082;11.628;2023-07-08T02:56:41;95530.84;;;16.26;78.99
72409;BME280;60402;48.082;11.628;2023-07-08T02:59:26;95527.75;;;16.15;79.04
72409;BME280;60402;48.082;11.628;2023-07-08T03:02:13;95535.78;;;16.26;78.10
72409;BME280;60402;48.082;11.628;2023-07-08T03:04:59;95537.25;;;16.12;78.14
72409;BME280;60402;48.082;11.628;2023-07-08T03:07:46;95537.88;;;16.16;78.25
72409;BME280;60402;48.082;11.628;2023-07-08T03:10:32;95535.63;;;16.20;78.21
72409;BME280;60402;48.082;11.628;2023-07-08T03:13:17;95547.38;;;16.13;79.42
72409;BME280;60402;48.082;11.628;2023-07-08T03:16:03;95543.75;;;16.03;80.71
72409;BME280;60402;48.082;11.628;2023-07-08T03:18:57;95549.59;;;16.09;80.77
72409;BME280;60402;48.082;11.628;2023-07-08T03:21:43;95537.31;;;15.84;82.46
72409;BME280;60402;48.082;11.628;2023-07-08T03:24:28;95543.16;;;15.90;83.24
72409;BME280;60402;48.082;11.628;2023-07-08T03:27:15;95537.94;;;15.89;81.72
72409;BME280;60402;48.082;11.628;2023-07-08T03:30:01;95533.03;;;15.89;81.59
72409;BME280;60402;48.082;11.628;2023-07-08T03:32:46;95527.16;;;15.93;81.59
72409;BME280;60402;48.082;11.628;2023-07-08T03:35:32;95524.16;;;15.96;81.21
72409;BME280;60402;48.082;11.628;2023-07-08T03:38:18;95530.16;;;15.98;80.96
72409;BME280;60402;48.082;11.628;2023-07-08T03:41:04;95541.41;;;16.02;81.39
72409;BME280;60402;48.082;11.628;2023-07-08T03:43:50;95538.88;;;15.95;81.91
72409;BME280;60402;48.082;11.628;2023-07-08T03:46:38;95543.78;;;15.94;82.25
72409;BME280;60402;48.082;11.628;2023-07-08T03:49:25;95540.59;;;16.01;81.55
72409;BME280;60402;48.082;11.628;2023-07-08T03:52:14;95543.09;;;16.08;81.24
72409;BME280;60402;48.082;11.628;2023-07-08T03:55:01;95533.13;;;16.04;81.31
72409;BME280;60402;48.082;11.628;2023-07-08T03:57:49;95535.69;;;16.02;81.63
72409;BME280;60402;48.082;11.628;2023-07-08T04:00:34;95531.72;;;15.99;81.63
72409;BME280;60402;48.082;11.628;2023-07-08T04:03:20;95541.84;;;16.09;81.04
72409;BME280;60402;48.082;11.628;2023-07-08T04:06:06;95542.59;;;16.28;80.16
72409;BME280;60402;48.082;11.628;2023-07-08T04:08:52;95540.03;;;16.30;79.80
72409;BME280;60402;48.082;11.628;2023-07-08T04:11:37;95536.69;;;16.32;79.66
72409;BME280;60402;48.082;11.628;2023-07-08T04:14:23;95548.06;;;16.41;79.74
72409;BME280;60402;48.082;11.628;2023-07-08T04:17:10;95538.28;;;16.33;80.30
72409;BME280;60402;48.082;11.628;2023-07-08T04:19:57;95550.25;;;16.46;79.57
72409;BME280;60402;48.082;11.628;2023-07-08T04:22:42;95537.34;;;16.60;79.25
72409;BME280;60402;48.082;11.628;2023-07-08T04:25:28;95522.91;;;16.64;79.05
72409;BME280;60402;48.082;11.628;2023-07-08T04:28:13;95537.78;;;16.77;78.48
72409;BME280;60402;48.082;11.628;2023-07-08T04:30:59;95526.56;;;16.64;77.93
72409;BME280;60402;48.082;11.628;2023-07-08T04:33:45;95536.63;;;16.83;78.44
72409;BME280;60402;48.082;11.628;2023-07-08T04:36:30;95537.13;;;16.82;78.08
72409;BME280;60402;48.082;11.628;2023-07-08T04:39:16;95546.91;;;16.90;79.21
72409;BME280;60402;48.082;11.628;2023-07-08T04:42:02;95555.09;;;16.97;80.85
72409;BME280;60402;48.082;11.628;2023-07-08T04:44:47;95555.88;;;16.98;81.55
72409;BME280;60402;48.082;11.628;2023-07-08T04:47:34;95554.25;;;17.06;81.39
72409;BME280;60402;48.082;11.628;2023-07-08T04:50:20;95558.34;;;17.14;81.28
72409;BME280;60402;48.082;11.628;2023-07-08T04:53:06;95571.44;;;17.21;80.67
72409;BME280;60402;48.082;11.628;2023-07-08T04:55:55;95574.63;;;17.23;80.57
72409;BME280;60402;48.082;11.628;2023-07-08T04:58:41;95583.41;;;17.34;79.92
72409;BME280;60402;48.082;11.628;2023-07-08T05:01:27;95588.03;;;17.31;80.09
72409;BME280;60402;48.082;11.628;2023-07-08T05:04:14;95605.41;;;17.43;80.19
72409;BME280;60402;48.082;11.628;2023-07-08T05:07:00;95598.84;;;17.51;79.27
72409;BME280;60402;48.082;11.628;2023-07-08T05:09:46;95599.81;;;17.48;79.84
72409;BME280;60402;48.082;11.628;2023-07-08T05:12:31;95594.13;;;17.63;79.12
72409;BME280;60402;48.082;11.628;2023-07-08T05:15:17;95597.56;;;17.76;78.45
72409;BME280;60402;48.082;11.628;2023-07-08T05:18:03;95612.38;;;17.90;78.33
72409;BME280;60402;48.082;11.628;2023-07-08T05:20:51;95619.28;;;17.98;77.84
72409;BME280;60402;48.082;11.628;2023-07-08T05:23:37;95603.91;;;17.95;78.26
72409;BME280;60402;48.082;11.628;2023-07-08T05:26:23;95595.94;;;18.14;76.28
72409;BME280;60402;48.082;11.628;2023-07-08T05:29:09;95598.59;;;18.32;73.53
72409;BME280;60402;48.082;11.628;2023-07-08T05:31:55;95613.09;;;18.44;73.64
72409;BME280;60402;48.082;11.628;2023-07-08T05:34:41;95599.69;;;18.35;74.46
72409;BME280;60402;48.082;11.628;2023-07-08T05:37:26;95608.97;;;18.59;72.80
72409;BME280;60402;48.082;11.628;2023-07-08T05:40:15;95603.16;;;18.69;73.21
72409;BME280;60402;48.082;11.628;2023-07-08T05:43:01;95602.53;;;18.79;73.48
72409;BME280;60402;48.082;11.628;2023-07-08T05:45:47;95605.25;;;19.03;70.09
72409;BME280;60402;48.082;11.628;2023-07-08T05:48:33;95600.84;;;19.23;69.75
72409;BME280;60402;48.082;11.628;2023-07-08T05:51:18;95608.75;;;19.48;68.47
72409;BME280;60402;48.082;11.628;2023-07-08T05:54:04;95599.59;;;19.64;67.12
72409;BME280;60402;48.082;11.628;2023-07-08T05:56:49;95605.63;;;19.87;65.58
72409;BME280;60402;48.082;11.628;2023-07-08T05:59:36;95601.03;;;19.75;65.96
72409;BME280;60402;48.082;11.628;2023-07-08T06:02:22;95607.22;;;20.14;64.97
72409;BME280;60402;48.082;11.628;2023-07-08T06:05:10;95602.00;;;20.38;64.49
72409;BME280;60402;48.082;11.628;2023-07-08T06:07:56;95603.34;;;20.43;64.56
72409;BME280;60402;48.082;11.628;2023-07-08T06:10:43;95607.78;;;20.70;64.05
72409;BME280;60402;48.082;11.628;2023-07-08T06:13:29;95602.03;;;21.02;62.58
72409;BME280;60402;48.082;11.628;2023-07-08T06:16:15;95599.84;;;21.23;61.55
72409;BME280;60402;48.082;11.628;2023-07-08T06:19:01;95615.66;;;21.44;61.53
72409;BME280;60402;48.082;11.628;2023-07-08T06:21:46;95602.47;;;21.69;60.33
72409;BME280;60402;48.082;11.628;2023-07-08T06:24:32;95603.75;;;21.68;60.35
72409;BME280;60402;48.082;11.628;2023-07-08T06:27:17;95598.97;;;21.11;60.57
72409;BME280;60402;48.082;11.628;2023-07-08T06:30:04;95611.69;;;21.36;60.39
72409;BME280;60402;48.082;11.628;2023-07-08T06:32:49;95607.91;;;21.61;60.56
72409;BME280;60402;48.082;11.628;2023-07-08T06:35:35;95608.44;;;21.60;61.06
72409;BME280;60402;48.082;11.628;2023-07-08T06:38:21;95619.09;;;21.48;61.23
72409;BME280;60402;48.082;11.628;2023-07-08T06:41:06;95602.13;;;21.50;61.10
72409;BME280;60402;48.082;11.628;2023-07-08T06:43:52;95605.53;;;22.14;60.00
72409;BME280;60402;48.082;11.628;2023-07-08T06:46:39;95608.50;;;22.48;59.33
72409;BME280;60402;48.082;11.628;2023-07-08T06:49:24;95597.25;;;22.72;57.75
72409;BME280;60402;48.082;11.628;2023-07-08T06:52:10;95602.75;;;22.64;58.31
72409;BME280;60402;48.082;11.628;2023-07-08T06:54:56;95612.97;;;22.60;59.15
72409;BME280;60402;48.082;11.628;2023-07-08T06:57:41;95616.88;;;22.51;59.52
72409;BME280;60402;48.082;11.628;2023-07-08T07:00:27;95609.81;;;22.58;58.91
72409;BME280;60402;48.082;11.628;2023-07-08T07:03:13;95612.63;;;22.18;60.03
72409;BME280;60402;48.082;11.628;2023-07-08T07:05:58;95603.44;;;22.14;60.42
72409;BME280;60402;48.082;11.628;2023-07-08T07:08:44;95616.31;;;22.30;60.31
72409;BME280;60402;48.082;11.628;2023-07-08T07:11:30;95615.59;;;22.75;59.27
72409;BME280;60402;48.082;11.628;2023-07-08T07:14:15;95612.50;;;23.06;57.51
72409;BME280;60402;48.082;11.628;2023-07-08T07:17:01;95605.38;;;23.24;56.52
72409;BME280;60402;48.082;11.628;2023-07-08T07:19:47;95609.03;;;23.53;56.41
72409;BME280;60402;48.082;11.628;2023-07-08T07:22:33;95603.22;;;24.74;53.14
72409;BME280;60402;48.082;11.628;2023-07-08T07:25:19;95607.91;;;25.68;49.91
72409;BME280;60402;48.082;11.628;2023-07-08T07:28:04;95609.91;;;25.54;49.08
72409;BME280;60402;48.082;11.628;2023-07-08T07:30:58;95617.31;;;24.84;51.33
72409;BME280;60402;48.082;11.628;2023-07-08T07:33:44;95620.91;;;25.31;50.14
72409;BME280;60402;48.082;11.628;2023-07-08T07:36:30;95610.81;;;25.43;50.11
72409;BME280;60402;48.082;11.628;2023-07-08T07:39:15;95623.06;;;25.25;49.77
72409;BME280;60402;48.082;11.628;2023-07-08T07:42:01;95619.84;;;24.63;52.32
72409;BME280;60402;48.082;11.628;2023-07-08T07:44:47;95625.53;;;24.38;53.75
72409;BME280;60402;48.082;11.628;2023-07-08T07:47:33;95636.13;;;24.60;53.92
72409;BME280;60402;48.082;11.628;2023-07-08T07:50:18;95649.50;;;25.05;52.40
72409;BME280;60402;48.082;11.628;2023-07-08T07:53:04;95671.09;;;25.94;50.56
72409;BME280;60402;48.082;11.628;2023-07-08T07:55:57;95664.00;;;26.14;49.03
72409;BME280;60402;48.082;11.628;2023-07-08T07:58:43;95677.53;;;25.81;50.48
72409;BME280;60402;48.082;11.628;2023-07-08T08:01:29;95672.31;;;26.23;49.89
72409;BME280;60402;48.082;11.628;2023-07-08T08:04:15;95678.97;;;27.18;47.17
72409;BME280;60402;48.082;11.628;2023-07-08T08:07:00;95681.75;;;26.05;50.67
72409;BME280;60402;48.082;11.628;2023-07-08T08:09:46;95682.13;;;26.63;49.22
72409;BME280;60402;48.082;11.628;2023-07-08T08:12:32;95678.84;;;26.72;49.17
72409;BME280;60402;48.082;11.628;2023-07-08T08:15:18;95680.94;;;26.72;49.22
72409;BME280;60402;48.082;11.628;2023-07-08T08:18:03;95686.28;;;26.68;48.89
72409;BME280;60402;48.082;11.628;2023-07-08T08:20:50;95692.84;;;26.49;47.90
72409;BME280;60402;48.082;11.628;2023-07-08T08:23:36;95697.94;;;26.38;48.75
72409;BME280;60402;48.082;11.628;2023-07-08T08:26:22;95705.53;;;26.84;48.50
72409;BME280;60402;48.082;11.628;2023-07-08T08:29:07;95706.03;;;26.88;46.95
72409;BME280;60402;48.082;11.628;2023-07-08T08:31:53;95704.91;;;26.29;47.58
72409;BME280;60402;48.082;11.628;2023-07-08T08:34:39;95704.34;;;26.55;48.28
72409;BME280;60402;48.082;11.628;2023-07-08T08:37:25;95701.78;;;26.89;48.61
72409;BME280;60402;48.082;11.628;2023-07-08T08:40:15;95702.25;;;26.93;47.83
72409;BME280;60402;48.082;11.628;2023-07-08T08:43:05;95701.22;;;26.72;48.53
72409;BME280;60402;48.082;11.628;2023-07-08T08:46:05;95696.69;;;26.33;49.44
72409;BME280;60402;48.082;11.628;2023-07-08T08:51:52;95695.81;;;27.19;47.96
72409;BME280;60402;48.082;11.628;2023-07-08T08:54:39;95691.50;;;27.26;47.53
72409;BME280;60402;48.082;11.628;2023-07-08T08:57:42;95708.47;;;27.54;46.72
72409;BME280;60402;48.082;11.628;2023-07-08T09:03:47;95710.00;;;27.04;46.68
72409;BME280;60402;48.082;11.628;2023-07-08T09:06:36;95708.13;;;26.88;46.53
72409;BME280;60402;48.082;11.628;2023-07-08T09:10:00;95707.50;;;27.14;45.52
72409;BME280;60402;48.082;11.628;2023-07-08T09:12:50;95711.47;;;27.62;44.18
72409;BME280;60402;48.082;11.628;2023-07-08T09:15:38;95709.97;;;27.42;44.73
72409;BME280;60402;48.082;11.628;2023-07-08T09:18:31;95694.94;;;27.43;44.37
72409;BME280;60402;48.082;11.628;2023-07-08T09:21:28;95704.06;;;27.47;43.74
72409;BME280;60402;48.082;11.628;2023-07-08T09:24:39;95715.59;;;27.72;44.35
72409;BME280;60402;48.082;11.628;2023-07-08T09:27:27;95703.47;;;28.13;42.71
72409;BME280;60402;48.082;11.628;2023-07-08T09:30:18;95709.09;;;28.38;41.30
72409;BME280;60402;48.082;11.628;2023-07-08T09:33:08;95705.84;;;28.28;41.62
72409;BME280;60402;48.082;11.628;2023-07-08T09:35:54;95705.69;;;27.62;41.59
72409;BME280;60402;48.082;11.628;2023-07-08T09:38:39;95701.22;;;27.93;41.04
72409;BME280;60402;48.082;11.628;2023-07-08T09:41:33;95708.09;;;28.48;41.43
72409;BME280;60402;48.082;11.628;2023-07-08T09:44:25;95703.69;;;28.15;41.03
72409;BME280;60402;48.082;11.628;2023-07-08T09:47:23;95698.78;;;27.65;41.30
72409;BME280;60402;48.082;11.628;2023-07-08T09:53:03;95699.19;;;27.88;41.70
72409;BME280;60402;48.082;11.628;2023-07-08T09:55:50;95704.34;;;28.08;41.23
72409;BME280;60402;48.082;11.628;2023-07-08T09:58:40;95704.91;;;28.07;41.15
72409;BME280;60402;48.082;11.628;2023-07-08T10:01:27;95709.06;;;28.24;40.82
72409;BME280;60402;48.082;11.628;2023-07-08T10:04:14;95715.63;;;27.98;40.97
72409;BME280;60402;48.082;11.628;2023-07-08T10:07:00;95707.50;;;28.23;40.78
72409;BME280;60402;48.082;11.628;2023-07-08T10:09:51;95710.41;;;28.37;39.99
72409;BME280;60402;48.082;11.628;2023-07-08T10:12:40;95720.41;;;27.83;39.79
72409;BME280;60402;48.082;11.628;2023-07-08T10:15:33;95711.22;;;27.79;40.57
72409;BME280;60402;48.082;11.628;2023-07-08T10:18:26;95720.75;;;27.92;40.19
72409;BME280;60402;48.082;11.628;2023-07-08T10:24:19;95726.38;;;28.17;40.58
72409;BME280;60402;48.082;11.628;2023-07-08T10:30:24;95729.53;;;28.19;40.38
72409;BME280;60402;48.082;11.628;2023-07-08T10:33:38;95718.78;;;28.14;40.62
72409;BME280;60402;48.082;11.628;2023-07-08T10:39:42;95724.91;;;27.65;40.19
72409;BME280;60402;48.082;11.628;2023-07-08T10:46:05;95729.28;;;27.39;39.83
72409;BME280;60402;48.082;11.628;2023-07-08T10:49:20;95714.94;;;27.60;41.16
72409;BME280;60402;48.082;11.628;2023-07-08T10:58:39;95713.25;;;27.84;39.71
72409;BME280;60402;48.082;11.628;2023-07-08T11:07:46;95714.19;;;28.32;39.16
72409;BME280;60402;48.082;11.628;2023-07-08T11:10:40;95711.50;;;28.07;39.33
72409;BME280;60402;48.082;11.628;2023-07-08T11:13:30;95714.13;;;27.79;38.84
72409;BME280;60402;48.082;11.628;2023-07-08T11:16:26;95715.19;;;27.30;38.92
72409;BME280;60402;48.082;11.628;2023-07-08T11:19:26;95699.50;;;27.39;38.15
72409;BME280;60402;48.082;11.628;2023-07-08T11:22:17;95705.75;;;27.75;38.36
72409;BME280;60402;48.082;11.628;2023-07-08T11:25:09;95706.13;;;27.52;39.12
72409;BME280;60402;48.082;11.628;2023-07-08T11:28:04;95709.78;;;27.72;37.89
72409;BME280;60402;48.082;11.628;2023-07-08T11:30:51;95707.75;;;27.80;38.92
72409;BME280;60402;48.082;11.628;2023-07-08T11:33:38;95707.75;;;27.80;39.09
72409;BME280;60402;48.082;11.628;2023-07-08T11:36:26;95702.22;;;28.09;39.05
72409;BME280;60402;48.082;11.628;2023-07-08T11:39:38;95695.88;;;28.23;38.65
72409;BME280;60402;48.082;11.628;2023-07-08T11:42:42;95691.09;;;28.52;37.74
72409;BME280;60402;48.082;11.628;2023-07-08T11:51:18;95690.41;;;28.60;36.86
72409;BME280;60402;48.082;11.628;2023-07-08T11:54:20;95690.00;;;28.42;36.52
72409;BME280;60402;48.082;11.628;2023-07-08T11:57:23;95680.78;;;28.65;36.26
72409;BME280;60402;48.082;11.628;2023-07-08T12:00:23;95680.22;;;28.66;36.92
72409;BME280;60402;48.082;11.628;2023-07-08T12:03:22;95684.53;;;28.86;35.67
72409;BME280;60402;48.082;11.628;2023-07-08T12:09:28;95679.78;;;28.75;34.92
72409;BME280;60402;48.082;11.628;2023-07-08T12:12:25;95680.25;;;29.14;35.31
72409;BME280;60402;48.082;11.628;2023-07-08T12:15:27;95674.00;;;29.10;36.81
72409;BME280;60402;48.082;11.628;2023-07-08T12:18:16;95681.03;;;29.35;35.88
72409;BME280;60402;48.082;11.628;2023-07-08T12:21:04;95675.09;;;29.41;36.40
72409;BME280;60402;48.082;11.628;2023-07-08T12:23:50;95676.22;;;29.38;35.74
72409;BME280;60402;48.082;11.628;2023-07-08T12:26:36;95698.25;;;29.12;35.24
72409;BME280;60402;48.082;11.628;2023-07-08T12:29:22;95676.16;;;29.51;35.88
72409;BME280;60402;48.082;11.628;2023-07-08T12:32:12;95677.50;;;29.50;34.96
72409;BME280;60402;48.082;11.628;2023-07-08T12:34:58;95674.44;;;29.35;35.18
72409;BME280;60402;48.082;11.628;2023-07-08T12:37:43;95672.50;;;29.16;33.57
72409;BME280;60402;48.082;11.628;2023-07-08T12:40:30;95671.03;;;29.23;34.20
72409;BME280;60402;48.082;11.628;2023-07-08T12:43:16;95662.09;;;29.42;34.84
72409;BME280;60402;48.082;11.628;2023-07-08T12:46:03;95664.09;;;29.68;33.62
72409;BME280;60402;48.082;11.628;2023-07-08T12:48:49;95663.72;;;29.92;33.01
72409;BME280;60402;48.082;11.628;2023-07-08T12:51:35;95664.16;;;29.96;32.58
72409;BME280;60402;48.082;11.628;2023-07-08T12:54:20;95665.13;;;29.70;31.74
72409;BME280;60402;48.082;11.628;2023-07-08T12:57:08;95658.81;;;29.87;31.18
72409;BME280;60402;48.082;11.628;2023-07-08T12:59:54;95663.47;;;30.11;31.42
72409;BME280;60402;48.082;11.628;2023-07-08T13:02:44;95675.22;;;30.19;31.58
72409;BME280;60402;48.082;11.628;2023-07-08T13:05:31;95659.28;;;30.20;30.54
72409;BME280;60402;48.082;11.628;2023-07-08T13:08:21;95665.38;;;29.80;29.34
72409;BME280;60402;48.082;11.628;2023-07-08T13:11:08;95660.25;;;29.73;29.30
72409;BME280;60402;48.082;11.628;2023-07-08T13:13:59;95660.69;;;29.77;30.09
72409;BME280;60402;48.082;11.628;2023-07-08T13:16:47;95672.69;;;29.73;30.10
72409;BME280;60402;48.082;11.628;2023-07-08T13:19:34;95677.66;;;29.86;29.60
72409;BME280;60402;48.082;11.628;2023-07-08T13:22:22;95679.53;;;29.76;30.15
72409;BME280;60402;48.082;11.628;2023-07-08T13:25:13;95676.53;;;29.89;30.38
72409;BME280;60402;48.082;11.628;2023-07-08T13:28:15;95684.13;;;30.13;30.76
72409;BME280;60402;48.082;11.628;2023-07-08T13:31:12;95669.81;;;30.23;30.81
72409;BME280;60402;48.082;11.628;2023-07-08T13:34:07;95675.09;;;30.03;28.42
72409;BME280;60402;48.082;11.628;2023-07-08T13:36:53;95663.44;;;29.83;29.69
72409;BME280;60402;48.082;11.628;2023-07-08T13:39:43;95671.44;;;30.11;29.57
72409;BME280;60402;48.082;11.628;2023-07-08T13:42:30;95664.28;;;30.12;30.88
72409;BME280;60402;48.082;11.628;2023-07-08T13:45:30;95663.69;;;29.85;31.12
72409;BME280;60402;48.082;11.628;2023-07-08T13:48:24;95659.75;;;29.82;31.05
72409;BME280;60402;48.082;11.628;2023-07-08T13:51:21;95662.38;;;30.14;30.20
72409;BME280;60402;48.082;11.628;2023-07-08T13:54:42;95664.16;;;29.96;31.02
72409;BME280;60402;48.082;11.628;2023-07-08T13:57:34;95663.38;;;29.96;31.01
72409;BME280;60402;48.082;11.628;2023-07-08T14:00:21;95664.81;;;30.10;30.14
72409;BME280;60402;48.082;11.628;2023-07-08T14:03:11;95665.97;;;30.28;30.25
72409;BME280;60402;48.082;11.628;2023-07-08T14:05:57;95659.59;;;30.37;29.75
72409;BME280;60402;48.082;11.628;2023-07-08T14:08:43;95653.31;;;30.25;29.19
72409;BME280;60402;48.082;11.628;2023-07-08T14:11:28;95657.56;;;30.24;29.52
72409;BME280;60402;48.082;11.628;2023-07-08T14:14:14;95660.19;;;30.36;29.03
72409;BME280;60402;48.082;11.628;2023-07-08T14:17:00;95651.75;;;30.24;28.67
72409;BME280;60402;48.082;11.628;2023-07-08T14:19:46;95650.44;;;30.33;29.11
72409;BME280;60402;48.082;11.628;2023-07-08T14:22:32;95644.41;;;29.82;29.32
72409;BME280;60402;48.082;11.628;2023-07-08T14:25:18;95652.72;;;29.98;29.22
72409;BME280;60402;48.082;11.628;2023-07-08T14:28:06;95643.66;;;30.10;29.28
72409;BME280;60402;48.082;11.628;2023-07-08T14:30:52;95637.63;;;30.08;29.52
72409;BME280;60402;48.082;11.628;2023-07-08T14:33:38;95650.25;;;30.10;29.79
72409;BME280;60402;48.082;11.628;2023-07-08T14:36:24;95641.47;;;30.02;29.19
72409;BME280;60402;48.082;11.628;2023-07-08T14:39:15;95645.97;;;30.11;29.09
72409;BME280;60402;48.082;11.628;2023-07-08T14:42:01;95637.47;;;29.85;29.47
72409;BME280;60402;48.082;11.628;2023-07-08T14:44:50;95643.06;;;29.83;30.51
72409;BME280;60402;48.082;11.628;2023-07-08T14:47:38;95656.69;;;29.88;30.91
72409;BME280;60402;48.082;11.628;2023-07-08T14:50:23;95651.34;;;29.99;30.12
72409;BME280;60402;48.082;11.628;2023-07-08T14:53:16;95658.78;;;29.59;30.53
72409;BME280;60402;48.082;11.628;2023-07-08T14:56:12;95643.06;;;29.20;31.05
72409;BME280;60402;48.082;11.628;2023-07-08T14:58:59;95645.38;;;29.21;30.84
72409;BME280;60402;48.082;11.628;2023-07-08T15:01:45;95660.13;;;29.58;31.50
72409;BME280;60402;48.082;11.628;2023-07-08T15:04:30;95658.41;;;29.41;31.88
72409;BME280;60402;48.082;11.628;2023-07-08T15:07:16;95656.88;;;29.61;31.71
72409;BME280;60402;48.082;11.628;2023-07-08T15:10:02;95646.22;;;29.64;30.94
72409;BME280;60402;48.082;11.628;2023-07-08T15:12:48;95656.53;;;29.65;31.49
72409;BME280;60402;48.082;11.628;2023-07-08T15:15:34;95650.28;;;29.61;31.79
72409;BME280;60402;48.082;11.628;2023-07-08T15:18:25;95649.13;;;29.64;30.02
72409;BME280;60402;48.082;11.628;2023-07-08T15:21:14;95648.41;;;29.71;28.73
72409;BME280;60402;48.082;11.628;2023-07-08T15:24:00;95644.50;;;29.68;29.42
72409;BME280;60402;48.082;11.628;2023-07-08T15:26:47;95642.75;;;29.65;29.25